createdAt,value
2018-03-25T00:03:58.196Z,64.07
2018-03-25T00:08:02.669Z,56.20
2018-03-25T00:12:05.269Z,61.50
2018-03-25T00:16:07.824Z,46.97
2018-03-25T00:20:11.315Z,39.20
2018-03-25T00:24:13.832Z,35.13
2018-03-25T00:28:17.164Z,46.50
2018-03-25T00:32:19.692Z,37.63
2018-03-25T00:36:23.013Z,34.17
2018-03-25T00:40:25.613Z,28.83
2018-03-25T00:44:28.166Z,32.27
2018-03-25T00:48:30.698Z,39.80
2018-03-25T00:52:34.117Z,45.23
2018-03-25T00:56:36.647Z,38.40
2018-03-25T01:00:39.277Z,40.93
2018-03-25T01:04:42.024Z,36.23
2018-03-25T01:08:44.566Z,43.50
2018-03-25T01:12:51.136Z,37.87
2018-03-25T01:16:53.976Z,33.37
2018-03-25T01:20:57.260Z,31.97
2018-03-25T01:25:00.244Z,33.87
2018-03-25T01:29:02.764Z,33.90
2018-03-25T01:33:05.612Z,25.80
2018-03-25T01:37:08.126Z,24.60
2018-03-25T01:41:11.447Z,25.63
2018-03-25T01:45:14.740Z,28.90
2018-03-25T01:49:17.407Z,30.50
2018-03-25T01:53:20.013Z,27.37
2018-03-25T01:57:22.559Z,26.17
2018-03-25T02:01:25.075Z,27.23
2018-03-25T02:05:27.625Z,29.27
2018-03-25T02:09:32.097Z,28.90
2018-03-25T02:13:34.819Z,29.10
2018-03-25T02:17:37.332Z,29.43
2018-03-25T02:21:39.921Z,26.23
2018-03-25T02:25:42.454Z,25.20
2018-03-25T02:29:50.393Z,25.50
2018-03-25T02:33:52.917Z,21.93
2018-03-25T02:37:56.220Z,21.40
2018-03-25T02:41:58.728Z,29.33
2018-03-25T02:46:01.289Z,31.27
2018-03-25T02:50:03.812Z,25.03
2018-03-25T02:54:06.735Z,23.90
2018-03-25T02:58:09.277Z,21.87
2018-03-25T03:02:12.612Z,24.83
2018-03-25T03:06:15.161Z,22.90
2018-03-25T03:10:17.713Z,22.23
2018-03-25T03:14:21.002Z,26.50
2018-03-25T03:18:23.605Z,30.87
2018-03-25T03:22:26.128Z,38.73
2018-03-25T03:26:28.687Z,31.97
2018-03-25T03:30:31.276Z,34.83
2018-03-25T03:34:33.826Z,29.57
2018-03-25T03:38:36.344Z,25.97
2018-03-25T03:42:38.937Z,24.53
2018-03-25T03:46:42.260Z,28.57
2018-03-25T03:50:44.848Z,24.30
2018-03-25T03:54:47.432Z,26.30
2018-03-25T03:58:50.000Z,26.30
2018-03-25T04:02:53.075Z,23.63
2018-03-25T04:06:55.719Z,26.30
2018-03-25T04:10:58.248Z,24.90
2018-03-25T04:15:00.852Z,27.27
2018-03-25T04:19:04.136Z,25.40
2018-03-25T04:23:07.115Z,27.07
2018-03-25T04:27:09.632Z,26.17
2018-03-25T04:31:12.264Z,25.57
2018-03-25T04:35:14.782Z,25.30
2018-03-25T04:39:17.339Z,23.37
2018-03-25T04:43:19.913Z,25.23
2018-03-25T04:47:23.363Z,25.77
2018-03-25T04:51:25.848Z,27.40
2018-03-25T04:55:31.111Z,21.87
2018-03-25T04:59:34.399Z,25.33
2018-03-25T05:03:37.260Z,19.93
2018-03-25T05:07:39.799Z,22.33
2018-03-25T05:11:42.344Z,26.50
2018-03-25T05:15:44.872Z,21.43
2018-03-25T05:19:49.288Z,21.37
2018-03-25T05:23:51.812Z,24.00
2018-03-25T05:27:54.743Z,26.57
2018-03-25T05:31:58.041Z,28.43
2018-03-25T05:36:00.692Z,21.67
2018-03-25T05:40:03.270Z,18.33
2018-03-25T05:44:06.609Z,24.30
2018-03-25T05:48:13.559Z,24.80
2018-03-25T05:52:16.236Z,22.63
2018-03-25T05:56:18.769Z,20.80
2018-03-25T06:00:22.248Z,23.20
2018-03-25T06:04:25.529Z,20.40
2018-03-25T06:08:28.135Z,21.20
2018-03-25T06:12:30.663Z,26.27
2018-03-25T06:16:33.264Z,23.37
2018-03-25T06:20:35.795Z,25.53
2018-03-25T06:24:38.345Z,25.00
2018-03-25T06:28:40.856Z,24.37
2018-03-25T06:32:43.736Z,21.07
2018-03-25T06:36:46.264Z,20.10
2018-03-25T06:40:48.822Z,18.73
2018-03-25T06:44:52.146Z,21.33
2018-03-25T06:48:55.661Z,21.17
2018-03-25T06:52:58.177Z,21.97
2018-03-25T06:57:01.496Z,23.77
2018-03-25T07:01:06.724Z,24.60
2018-03-25T07:05:09.307Z,22.37
2018-03-25T07:09:12.888Z,21.07
2018-03-25T07:13:15.433Z,21.40
2018-03-25T07:17:19.008Z,21.87
2018-03-25T07:21:26.886Z,24.70
2018-03-25T07:25:30.155Z,21.93
2018-03-25T07:29:32.716Z,20.10
2018-03-25T07:33:36.198Z,25.93
2018-03-25T07:37:39.793Z,25.23
2018-03-25T07:41:43.048Z,29.77
2018-03-25T07:45:45.926Z,27.07
2018-03-25T07:49:48.480Z,26.00
2018-03-25T07:53:51.048Z,27.37
2018-03-25T07:57:54.340Z,23.90
2018-03-25T08:01:59.692Z,19.57
2018-03-25T08:06:02.196Z,20.60
2018-03-25T08:10:05.126Z,21.30
2018-03-25T08:14:08.572Z,18.83
2018-03-25T08:18:11.176Z,19.13
2018-03-25T08:22:13.701Z,18.77
2018-03-25T08:26:16.260Z,19.80
2018-03-25T08:30:19.547Z,25.57
2018-03-25T08:34:22.216Z,18.30
2018-03-25T08:38:26.752Z,16.93
2018-03-25T08:42:30.068Z,18.10
2018-03-25T08:46:33.366Z,20.77
2018-03-25T08:50:36.908Z,23.43
2018-03-25T08:54:39.427Z,19.90
2018-03-25T08:58:44.782Z,19.50
2018-03-25T09:02:48.292Z,20.47
2018-03-25T09:06:50.943Z,17.57
2018-03-25T09:10:56.373Z,20.27
2018-03-25T09:15:00.854Z,18.27
2018-03-25T09:19:04.196Z,20.37
2018-03-25T09:23:08.505Z,22.10
2018-03-25T09:27:11.039Z,17.83
2018-03-25T09:31:14.369Z,21.07
2018-03-25T09:35:18.877Z,21.70
2018-03-25T09:39:24.720Z,21.03
2018-03-25T09:43:32.906Z,19.47
2018-03-25T09:47:38.624Z,19.30
2018-03-25T09:51:41.914Z,18.50
2018-03-25T09:55:44.481Z,20.33
2018-03-25T09:59:47.027Z,21.57
2018-03-25T10:03:52.783Z,18.70
2018-03-25T10:08:08.333Z,19.50
2018-03-25T10:12:12.985Z,23.57
2018-03-25T10:16:18.256Z,23.33
2018-03-25T10:20:20.837Z,19.57
2018-03-25T10:24:23.379Z,20.20
2018-03-25T10:28:26.715Z,21.23
2018-03-25T10:32:31.936Z,21.10
2018-03-25T10:36:34.482Z,22.27
2018-03-25T10:40:37.784Z,21.77
2018-03-25T10:44:42.336Z,41.47
2018-03-25T10:48:45.029Z,21.33
2018-03-25T10:52:47.964Z,22.50
2018-03-25T10:56:52.491Z,60.57
2018-03-25T11:00:55.443Z,22.30
2018-03-25T11:05:03.740Z,21.70
2018-03-25T11:09:09.961Z,22.53
2018-03-25T11:13:17.056Z,20.43
2018-03-25T11:17:19.749Z,22.30
2018-03-25T11:21:23.025Z,19.53
2018-03-25T11:25:26.880Z,20.43
2018-03-25T11:29:31.511Z,25.87
2018-03-25T11:33:34.068Z,42.53
2018-03-25T11:37:37.552Z,27.93
2018-03-25T11:41:40.131Z,22.10
2018-03-25T11:45:45.720Z,25.47
2018-03-25T11:49:48.564Z,21.07
2018-03-25T11:53:51.099Z,21.23
2018-03-25T11:57:54.825Z,21.63
2018-03-25T12:01:58.129Z,17.60
2018-03-25T12:06:00.745Z,20.53
2018-03-25T12:10:03.283Z,19.73
2018-03-25T12:14:05.949Z,20.27
2018-03-25T12:18:09.280Z,20.83
2018-03-25T12:22:12.849Z,20.80
2018-03-25T12:26:16.347Z,20.63
2018-03-25T12:30:18.911Z,20.77
2018-03-25T12:34:23.469Z,18.93
2018-03-25T12:38:26.157Z,19.17
2018-03-25T12:42:28.715Z,21.23
2018-03-25T12:46:31.382Z,23.67
2018-03-25T12:50:38.636Z,18.93
2018-03-25T12:54:41.343Z,23.60
2018-03-25T12:58:43.906Z,21.07
2018-03-25T13:02:46.497Z,21.87
2018-03-25T13:06:49.063Z,22.63
2018-03-25T13:10:52.532Z,21.63
2018-03-25T13:14:56.140Z,23.63
2018-03-25T13:18:59.816Z,20.47
2018-03-25T13:23:02.367Z,17.60
2018-03-25T13:27:05.343Z,21.23
2018-03-25T13:31:08.115Z,20.80
2018-03-25T13:35:10.691Z,20.03
2018-03-25T13:39:13.302Z,19.07
2018-03-25T13:43:15.904Z,19.53
2018-03-25T13:47:18.453Z,21.73
2018-03-25T13:51:21.099Z,21.13
2018-03-25T13:55:23.693Z,20.97
2018-03-25T13:59:31.973Z,21.27
2018-03-25T14:03:34.500Z,21.63
2018-03-25T14:07:39.140Z,23.67
2018-03-25T14:11:41.672Z,20.43
2018-03-25T14:15:48.074Z,21.97
2018-03-25T14:19:51.368Z,19.90
2018-03-25T14:23:53.950Z,18.63
2018-03-25T14:27:56.721Z,19.97
2018-03-25T14:31:59.304Z,24.70
2018-03-25T14:36:01.831Z,19.43
2018-03-25T14:40:05.194Z,22.40
2018-03-25T14:44:07.727Z,20.50
2018-03-25T14:48:10.296Z,19.43
2018-03-25T14:52:12.969Z,20.63
2018-03-25T14:56:17.536Z,18.10
2018-03-25T15:00:20.834Z,20.27
2018-03-25T15:04:23.396Z,19.30
2018-03-25T15:08:26.008Z,18.97
2018-03-25T15:12:29.588Z,23.30
2018-03-25T15:16:33.095Z,22.57
2018-03-25T15:20:35.644Z,18.90
2018-03-25T15:24:38.929Z,18.30
2018-03-25T15:28:42.646Z,18.17
2018-03-25T15:32:45.216Z,19.27
2018-03-25T15:36:54.186Z,19.83
2018-03-25T15:40:57.530Z,17.00
2018-03-25T15:45:00.199Z,19.93
2018-03-25T15:49:07.046Z,18.77
2018-03-25T15:53:09.609Z,18.63
2018-03-25T15:57:13.171Z,64.40
2018-03-25T16:01:15.748Z,19.40
2018-03-25T16:05:19.040Z,17.80
2018-03-25T16:09:27.488Z,22.17
2018-03-25T16:13:31.049Z,19.10
2018-03-25T16:17:33.633Z,20.33
2018-03-25T16:21:39.930Z,20.10
2018-03-25T16:25:42.552Z,21.27
2018-03-25T16:29:45.091Z,21.43
2018-03-25T16:33:48.177Z,23.40
2018-03-25T16:37:52.668Z,18.73
2018-03-25T16:41:56.344Z,17.63
2018-03-25T16:46:00.677Z,19.20
2018-03-25T16:50:04.097Z,18.33
2018-03-25T16:54:07.834Z,19.67
2018-03-25T16:58:11.157Z,22.03
2018-03-25T17:02:16.380Z,18.47
2018-03-25T17:06:19.031Z,18.87
2018-03-25T17:10:26.723Z,20.67
2018-03-25T17:14:29.324Z,20.43
2018-03-25T17:18:31.942Z,20.13
2018-03-25T17:22:34.613Z,20.83
2018-03-25T17:26:37.175Z,21.30
2018-03-25T17:30:39.774Z,19.57
2018-03-25T17:34:44.198Z,22.33
2018-03-25T17:38:46.904Z,20.77
2018-03-25T17:42:49.568Z,22.73
2018-03-25T17:46:57.216Z,21.27
2018-03-25T17:50:59.776Z,18.70
2018-03-25T17:55:02.504Z,20.37
2018-03-25T17:59:06.276Z,22.77
2018-03-25T18:03:08.840Z,19.60
2018-03-25T18:07:12.132Z,17.33
2018-03-25T18:11:14.852Z,17.03
2018-03-25T18:15:17.397Z,18.23
2018-03-25T18:19:20.124Z,21.93
2018-03-25T18:23:22.650Z,21.77
2018-03-25T18:27:25.216Z,21.10
2018-03-25T18:31:27.744Z,20.47
2018-03-25T18:35:30.425Z,18.83
2018-03-25T18:39:33.751Z,21.37
2018-03-25T18:43:37.290Z,23.17
2018-03-25T18:47:39.849Z,22.73
2018-03-25T18:51:42.427Z,23.73
2018-03-25T18:55:45.133Z,42.30
2018-03-25T18:59:52.388Z,26.63
2018-03-25T19:03:59.680Z,22.37
2018-03-25T19:08:03.256Z,26.83
2018-03-25T19:12:06.574Z,22.93
2018-03-25T19:16:10.302Z,23.80
2018-03-25T19:20:12.848Z,21.97
2018-03-25T19:24:15.484Z,19.80
2018-03-25T19:28:18.005Z,21.47
2018-03-25T19:32:20.609Z,18.20
2018-03-25T19:36:24.125Z,21.00
2018-03-25T19:40:26.724Z,20.40
2018-03-25T19:44:29.262Z,19.27
2018-03-25T19:48:32.884Z,17.63
2018-03-25T19:52:35.407Z,19.93
2018-03-25T19:56:39.752Z,20.33
2018-03-25T20:00:43.049Z,20.10
2018-03-25T20:04:45.620Z,26.80
2018-03-25T20:08:48.145Z,28.00
2018-03-25T20:12:50.704Z,28.13
2018-03-25T20:16:54.042Z,32.10
2018-03-25T20:20:58.570Z,30.17
2018-03-25T20:25:01.111Z,31.07
2018-03-25T20:29:03.660Z,33.10
2018-03-25T20:33:06.197Z,29.80
2018-03-25T20:37:09.536Z,32.80
2018-03-25T20:41:12.056Z,33.90
2018-03-25T20:45:14.617Z,33.80
2018-03-25T20:49:17.128Z,32.37
2018-03-25T20:53:19.685Z,31.20
2018-03-25T20:57:24.467Z,34.83
2018-03-25T21:01:27.312Z,33.07
2018-03-25T21:05:30.599Z,34.13
2018-03-25T21:09:33.172Z,33.13
2018-03-25T21:13:35.705Z,34.57
2018-03-25T21:17:38.249Z,35.40
2018-03-25T21:21:42.561Z,35.27
2018-03-25T21:25:45.171Z,41.63
2018-03-25T21:29:47.735Z,36.53
2018-03-25T21:33:50.287Z,37.23
2018-03-25T21:37:53.828Z,36.33
2018-03-25T21:41:58.380Z,37.40
2018-03-25T21:46:00.912Z,39.67
2018-03-25T21:50:04.223Z,38.03
2018-03-25T21:54:07.520Z,38.30
2018-03-25T21:58:11.218Z,47.57
2018-03-25T22:02:13.736Z,45.93
2018-03-25T22:06:16.585Z,40.40
2018-03-25T22:10:19.109Z,40.67
2018-03-25T22:14:22.435Z,34.60
2018-03-25T22:18:30.640Z,40.00
2018-03-25T22:22:33.612Z,39.03
2018-03-25T22:26:38.086Z,36.13
2018-03-25T22:30:40.702Z,42.07
2018-03-25T22:34:43.220Z,39.43
2018-03-25T22:38:45.780Z,40.00
2018-03-25T22:42:48.299Z,38.70
2018-03-25T22:46:50.840Z,39.97
2018-03-25T22:50:53.366Z,36.50
2018-03-25T22:54:55.924Z,36.70
2018-03-25T22:58:58.565Z,36.80
2018-03-25T23:03:01.142Z,35.40
2018-03-25T23:07:04.675Z,37.07
2018-03-25T23:11:07.345Z,40.10
2018-03-25T23:15:09.884Z,39.70
2018-03-25T23:19:12.524Z,39.37
2018-03-25T23:23:15.055Z,41.50
2018-03-25T23:27:17.625Z,45.70
2018-03-25T23:31:20.164Z,41.43
2018-03-25T23:35:23.476Z,36.40
2018-03-25T23:39:25.996Z,38.03
2018-03-25T23:43:29.308Z,36.07
2018-03-25T23:47:35.976Z,38.60
2018-03-25T23:51:38.608Z,38.43
2018-03-25T23:55:41.145Z,37.83
2018-03-25T23:59:43.683Z,38.60
